createdAt,value
2023-05-18T00:02:21.770Z,5.46
2023-05-18T00:04:51.076Z,5.49
2023-05-18T00:07:19.082Z,5.48
2023-05-18T00:09:47.550Z,5.46
2023-05-18T00:12:15.407Z,5.47
2023-05-18T00:14:43.335Z,5.53
2023-05-18T00:17:11.179Z,5.46
2023-05-18T00:19:40.674Z,5.53
2023-05-18T00:22:09.925Z,5.53
2023-05-18T00:24:37.950Z,5.53
2023-05-18T00:27:06.017Z,5.59
2023-05-18T00:29:34.317Z,5.55
2023-05-18T00:32:02.440Z,5.55
2023-05-18T00:34:31.135Z,5.51
2023-05-18T00:36:59.281Z,5.50
2023-05-18T00:39:28.541Z,5.54
2023-05-18T00:41:56.484Z,5.48
2023-05-18T00:44:25.918Z,5.40
2023-05-18T00:46:53.840Z,5.45
2023-05-18T00:49:21.835Z,5.44
2023-05-18T00:51:50.874Z,5.42
2023-05-18T00:54:19.467Z,5.39
2023-05-18T00:56:49.324Z,5.35
2023-05-18T00:59:18.597Z,5.32
2023-05-18T01:01:46.973Z,5.34
2023-05-18T01:04:15.159Z,5.34
2023-05-18T01:06:43.966Z,5.29
2023-05-18T01:09:13.589Z,5.23
2023-05-18T01:12:01.064Z,5.23
2023-05-18T01:14:34.160Z,5.22
2023-05-18T01:17:14.539Z,5.21
2023-05-18T01:20:17.882Z,5.17
2023-05-18T01:23:10.120Z,5.19
2023-05-18T01:25:48.446Z,5.13
2023-05-18T01:28:22.001Z,5.13
2023-05-18T01:30:51.071Z,5.09
2023-05-18T01:33:19.015Z,5.05
2023-05-18T01:35:48.593Z,5.01
2023-05-18T01:38:18.773Z,4.93
2023-05-18T01:40:57.394Z,4.93
2023-05-18T01:43:33.016Z,4.92
2023-05-18T01:46:05.837Z,4.92
2023-05-18T01:48:38.453Z,4.84
2023-05-18T01:51:11.272Z,4.80
2023-05-18T01:53:44.687Z,4.82
2023-05-18T01:56:15.422Z,4.79
2023-05-18T01:58:45.294Z,4.75
2023-05-18T02:01:13.349Z,4.73
2023-05-18T02:03:41.472Z,4.75
2023-05-18T02:06:09.441Z,4.68
2023-05-18T02:08:38.220Z,4.61
2023-05-18T02:11:06.214Z,4.60
2023-05-18T02:13:34.478Z,4.59
2023-05-18T02:16:04.464Z,4.61
2023-05-18T02:18:34.201Z,4.56
2023-05-18T02:21:02.924Z,4.54
2023-05-18T02:23:33.915Z,4.49
2023-05-18T02:26:02.349Z,4.49
2023-05-18T02:28:30.709Z,4.43
2023-05-18T02:31:08.005Z,4.49
2023-05-18T02:33:39.927Z,4.44
2023-05-18T02:36:10.081Z,4.43
2023-05-18T02:38:39.413Z,4.41
2023-05-18T02:41:08.703Z,4.40
2023-05-18T02:43:37.200Z,4.34
2023-05-18T02:46:07.290Z,4.36
2023-05-18T02:48:35.800Z,4.34
2023-05-18T02:51:03.666Z,4.34
2023-05-18T02:53:31.750Z,4.29
2023-05-18T02:56:05.115Z,4.25
2023-05-18T02:58:44.466Z,4.24
2023-05-18T03:01:22.162Z,4.20
2023-05-18T03:03:53.666Z,4.19
2023-05-18T03:06:23.442Z,4.18
2023-05-18T03:08:51.779Z,4.12
2023-05-18T03:11:19.746Z,4.15
2023-05-18T03:13:47.940Z,4.08
2023-05-18T03:16:17.757Z,4.07
2023-05-18T03:18:48.757Z,4.06
2023-05-18T03:21:17.380Z,4.01
2023-05-18T03:23:46.430Z,4.02
2023-05-18T03:26:14.398Z,3.93
2023-05-18T03:28:42.488Z,3.98
2023-05-18T03:31:11.122Z,3.93
2023-05-18T03:33:39.116Z,3.90
2023-05-18T03:36:09.345Z,3.88
2023-05-18T03:38:37.230Z,3.88
2023-05-18T03:41:10.807Z,3.90
2023-05-18T03:43:38.774Z,3.91
2023-05-18T03:46:08.076Z,3.90
2023-05-18T03:48:37.267Z,3.86
2023-05-18T03:51:06.453Z,3.85
2023-05-18T03:53:37.037Z,3.84
2023-05-18T03:56:04.978Z,3.80
2023-05-18T03:58:33.227Z,3.82
2023-05-18T04:01:01.675Z,3.86
2023-05-18T04:03:30.676Z,3.80
2023-05-18T04:05:58.794Z,3.83
2023-05-18T04:08:26.935Z,3.77
2023-05-18T04:10:56.228Z,3.81
2023-05-18T04:13:24.436Z,3.81
2023-05-18T04:15:52.708Z,3.85
2023-05-18T04:18:21.023Z,3.85
2023-05-18T04:20:49.934Z,3.88
2023-05-18T04:23:18.861Z,3.91
2023-05-18T04:25:46.757Z,3.97
2023-05-18T04:28:16.460Z,3.97
2023-05-18T04:30:44.332Z,4.00
2023-05-18T04:33:13.410Z,4.02
2023-05-18T04:35:41.425Z,4.04
2023-05-18T04:38:10.819Z,4.12
2023-05-18T04:40:42.508Z,4.17
2023-05-18T04:43:11.779Z,4.28
2023-05-18T04:45:42.737Z,4.30
2023-05-18T04:48:10.915Z,4.37
2023-05-18T04:50:40.126Z,4.48
2023-05-18T04:53:09.427Z,4.56
2023-05-18T04:55:37.707Z,4.72
2023-05-18T04:58:10.581Z,4.85
2023-05-18T05:00:38.681Z,4.93
2023-05-18T05:03:08.057Z,5.07
2023-05-18T05:05:36.472Z,5.13
2023-05-18T05:08:06.589Z,5.24
2023-05-18T05:10:34.479Z,5.32
2023-05-18T05:13:02.417Z,5.43
2023-05-18T05:15:30.987Z,5.50
2023-05-18T05:17:59.833Z,5.60
2023-05-18T05:20:29.267Z,5.68
2023-05-18T05:22:57.168Z,5.73
2023-05-18T05:25:27.412Z,5.81
2023-05-18T05:27:55.501Z,5.90
2023-05-18T05:30:23.662Z,5.95
2023-05-18T05:32:51.570Z,6.03
2023-05-18T05:35:19.687Z,6.07
2023-05-18T05:37:50.212Z,6.14
2023-05-18T05:40:18.709Z,6.25
2023-05-18T05:42:47.700Z,6.32
2023-05-18T05:45:15.631Z,6.35
2023-05-18T05:47:50.732Z,6.44
2023-05-18T05:50:20.812Z,6.54
2023-05-18T05:52:52.038Z,6.65
2023-05-18T05:55:20.887Z,6.77
2023-05-18T05:57:48.744Z,6.86
2023-05-18T06:00:17.503Z,6.93
2023-05-18T06:02:58.797Z,6.97
2023-05-18T06:05:34.902Z,7.07
2023-05-18T06:08:06.030Z,7.17
2023-05-18T06:10:34.148Z,7.27
2023-05-18T06:13:02.426Z,7.34
2023-05-18T06:15:37.806Z,7.40
2023-05-18T06:18:06.352Z,7.48
2023-05-18T06:20:34.538Z,7.51
2023-05-18T06:23:02.498Z,7.55
2023-05-18T06:25:49.222Z,7.70
2023-05-18T06:28:24.571Z,7.86
2023-05-18T06:31:03.309Z,7.88
2023-05-18T06:33:38.600Z,7.92
2023-05-18T06:36:06.872Z,8.05
2023-05-18T06:38:34.801Z,8.11
2023-05-18T06:41:04.084Z,8.12
2023-05-18T06:43:32.019Z,8.30
2023-05-18T06:46:38.641Z,8.38
2023-05-18T06:49:13.511Z,8.33
2023-05-18T06:51:41.757Z,8.41
2023-05-18T06:54:09.778Z,8.64
2023-05-18T06:56:39.042Z,8.67
2023-05-18T06:59:06.897Z,8.71
2023-05-18T07:01:34.928Z,8.79
2023-05-18T07:04:05.119Z,8.89
2023-05-18T07:06:33.471Z,8.99
2023-05-18T07:09:01.463Z,9.06
2023-05-18T07:11:29.884Z,9.07
2023-05-18T07:13:59.252Z,9.16
2023-05-18T07:16:27.964Z,9.27
2023-05-18T07:18:56.032Z,9.31
2023-05-18T07:21:23.929Z,9.41
2023-05-18T07:23:52.737Z,9.49
2023-05-18T07:26:22.505Z,9.50
2023-05-18T07:28:51.362Z,9.65
2023-05-18T07:31:22.211Z,9.76
2023-05-18T07:33:50.259Z,9.74
2023-05-18T07:36:18.114Z,9.98
2023-05-18T07:38:46.088Z,9.94
2023-05-18T07:41:14.028Z,10.05
2023-05-18T07:43:42.354Z,10.10
2023-05-18T07:46:10.335Z,10.18
2023-05-18T07:48:41.028Z,10.37
2023-05-18T07:51:09.334Z,10.33
2023-05-18T07:53:38.160Z,10.40
2023-05-18T07:56:07.046Z,10.42
2023-05-18T07:58:35.232Z,10.48
2023-05-18T08:01:03.439Z,10.61
2023-05-18T08:03:31.539Z,10.49
2023-05-18T08:06:01.092Z,10.58
2023-05-18T08:08:30.168Z,10.58
2023-05-18T08:10:58.971Z,11.06
2023-05-18T08:13:26.873Z,10.92
2023-05-18T08:16:07.254Z,11.01
2023-05-18T08:18:38.939Z,11.19
2023-05-18T08:21:09.953Z,11.17
2023-05-18T08:23:38.613Z,11.19
2023-05-18T08:26:08.210Z,11.36
2023-05-18T08:28:36.617Z,11.38
2023-05-18T08:31:04.504Z,11.38
2023-05-18T08:33:33.358Z,11.43
2023-05-18T08:36:01.297Z,11.46
2023-05-18T08:38:32.187Z,11.55
2023-05-18T08:41:07.631Z,11.55
2023-05-18T08:43:39.299Z,11.64
2023-05-18T08:46:14.660Z,11.75
2023-05-18T08:48:46.721Z,11.79
2023-05-18T08:51:20.825Z,11.75
2023-05-18T08:53:53.879Z,11.81
2023-05-18T08:56:24.527Z,11.82
2023-05-18T08:58:55.680Z,11.99
2023-05-18T09:01:28.253Z,11.93
2023-05-18T09:03:58.125Z,12.02
2023-05-18T09:06:26.481Z,12.11
2023-05-18T09:08:57.669Z,12.13
2023-05-18T09:11:27.273Z,12.20
2023-05-18T09:13:56.255Z,12.38
2023-05-18T09:16:24.601Z,12.23
2023-05-18T09:18:53.666Z,12.36
2023-05-18T09:21:21.717Z,12.50
2023-05-18T09:23:49.848Z,12.51
2023-05-18T09:26:20.993Z,12.41
2023-05-18T09:28:53.628Z,12.46
2023-05-18T09:31:24.394Z,12.62
2023-05-18T09:33:53.590Z,12.64
2023-05-18T09:36:26.587Z,12.60
2023-05-18T09:38:54.548Z,12.48
2023-05-18T09:41:27.537Z,12.56
2023-05-18T09:43:55.797Z,12.57
2023-05-18T09:46:23.742Z,12.56
2023-05-18T09:48:53.037Z,12.68
2023-05-18T09:51:24.969Z,12.67
2023-05-18T09:53:55.512Z,12.65
2023-05-18T09:56:26.760Z,12.77
2023-05-18T09:58:55.178Z,12.86
2023-05-18T10:01:23.309Z,12.84
2023-05-18T10:03:51.384Z,12.84
2023-05-18T10:06:20.176Z,12.84
2023-05-18T10:08:48.373Z,13.00
2023-05-18T10:11:19.031Z,12.96
2023-05-18T10:13:48.378Z,12.90
2023-05-18T10:16:16.601Z,12.96
2023-05-18T10:18:44.801Z,12.88
2023-05-18T10:21:15.186Z,13.05
2023-05-18T10:23:46.491Z,13.08
2023-05-18T10:26:21.336Z,13.02
2023-05-18T10:28:54.331Z,13.12
2023-05-18T10:31:24.476Z,13.18
2023-05-18T10:33:54.192Z,13.16
2023-05-18T10:36:25.553Z,13.29
2023-05-18T10:38:53.734Z,13.38
2023-05-18T10:41:23.534Z,13.39
2023-05-18T10:43:55.188Z,13.41
2023-05-18T10:46:26.781Z,13.49
2023-05-18T10:48:56.564Z,13.62
2023-05-18T10:51:27.057Z,13.62
2023-05-18T10:54:00.551Z,13.67
2023-05-18T10:56:29.696Z,13.60
2023-05-18T10:58:59.216Z,13.70
2023-05-18T11:01:27.415Z,13.94
2023-05-18T11:03:55.700Z,13.89
2023-05-18T11:06:25.612Z,13.73
2023-05-18T11:08:53.766Z,13.87
2023-05-18T11:11:26.277Z,13.94
2023-05-18T11:13:54.373Z,14.07
2023-05-18T11:16:34.725Z,14.01
2023-05-18T11:19:06.909Z,14.11
2023-05-18T11:21:53.739Z,14.27
2023-05-18T11:24:31.791Z,14.15
2023-05-18T11:27:03.501Z,14.32
2023-05-18T11:29:33.440Z,14.36
2023-05-18T11:32:04.841Z,14.38
2023-05-18T11:34:45.779Z,14.41
2023-05-18T11:37:15.476Z,14.38
2023-05-18T11:39:55.290Z,14.38
2023-05-18T11:42:34.449Z,14.43
2023-05-18T11:45:07.819Z,14.52
2023-05-18T11:47:38.032Z,14.48
2023-05-18T11:50:08.759Z,14.40
2023-05-18T11:52:47.066Z,14.52
2023-05-18T11:55:16.315Z,14.63
2023-05-18T11:57:45.460Z,14.67
2023-05-18T12:00:15.760Z,14.85
2023-05-18T12:02:46.615Z,14.86
2023-05-18T12:05:15.973Z,14.92
2023-05-18T12:07:44.865Z,14.80
2023-05-18T12:10:16.122Z,14.83
2023-05-18T12:12:44.959Z,14.90
2023-05-18T12:15:16.517Z,14.95
2023-05-18T12:17:48.371Z,14.84
2023-05-18T12:20:18.033Z,14.87
2023-05-18T12:22:50.124Z,15.05
2023-05-18T12:25:18.043Z,14.99
2023-05-18T12:27:48.011Z,15.08
2023-05-18T12:30:19.117Z,15.17
2023-05-18T12:32:49.536Z,15.17
2023-05-18T12:35:17.817Z,15.15
2023-05-18T12:37:46.629Z,15.08
2023-05-18T12:40:16.211Z,15.24
2023-05-18T12:42:53.427Z,15.33
2023-05-18T12:45:25.096Z,15.40
2023-05-18T12:47:56.237Z,15.40
2023-05-18T12:50:26.664Z,15.35
2023-05-18T12:52:55.956Z,15.37
2023-05-18T12:55:25.237Z,15.39
2023-05-18T12:58:01.726Z,15.47
2023-05-18T13:00:33.597Z,15.42
2023-05-18T13:03:08.887Z,15.37
2023-05-18T13:05:38.262Z,15.41
2023-05-18T13:08:06.592Z,15.33
2023-05-18T13:10:34.897Z,15.41
2023-05-18T13:13:04.252Z,15.57
2023-05-18T13:15:35.839Z,15.54
2023-05-18T13:18:05.965Z,15.49
2023-05-18T13:20:37.846Z,15.61
2023-05-18T13:23:08.109Z,15.64
2023-05-18T13:25:36.372Z,15.58
2023-05-18T13:28:04.841Z,15.54
2023-05-18T13:30:33.512Z,15.61
2023-05-18T13:33:01.670Z,15.77
2023-05-18T13:35:29.888Z,15.69
2023-05-18T13:37:59.536Z,15.71
2023-05-18T13:40:27.448Z,15.69
2023-05-18T13:42:55.419Z,15.63
2023-05-18T13:45:23.726Z,15.54
2023-05-18T13:47:53.457Z,15.46
2023-05-18T13:50:23.066Z,15.57
2023-05-18T13:52:51.120Z,15.69
2023-05-18T13:55:20.496Z,15.59
2023-05-18T13:57:48.376Z,15.57
2023-05-18T14:00:17.134Z,15.58
2023-05-18T14:02:46.200Z,15.65
2023-05-18T14:05:15.146Z,15.80
2023-05-18T14:07:43.930Z,15.94
2023-05-18T14:10:13.524Z,15.85
2023-05-18T14:12:43.409Z,15.68
2023-05-18T14:15:14.861Z,15.72
2023-05-18T14:17:43.118Z,15.65
2023-05-18T14:20:12.071Z,15.63
2023-05-18T14:22:40.025Z,15.76
2023-05-18T14:25:08.678Z,15.84
2023-05-18T14:27:36.652Z,15.96
2023-05-18T14:30:07.159Z,15.99
2023-05-18T14:32:35.148Z,15.86
2023-05-18T14:35:03.608Z,15.67
2023-05-18T14:37:33.050Z,15.57
2023-05-18T14:40:00.951Z,15.50
2023-05-18T14:42:28.805Z,15.58
2023-05-18T14:44:56.699Z,15.62
2023-05-18T14:47:26.097Z,15.79
2023-05-18T14:49:54.093Z,15.84
2023-05-18T14:52:21.977Z,15.96
2023-05-18T14:54:49.873Z,16.15
2023-05-18T14:57:17.770Z,16.09
2023-05-18T14:59:45.748Z,15.99
2023-05-18T15:02:13.752Z,15.87
2023-05-18T15:04:43.036Z,15.83
2023-05-18T15:07:10.960Z,15.80
2023-05-18T15:09:38.884Z,15.83
2023-05-18T15:12:07.291Z,15.84
2023-05-18T15:14:35.536Z,15.91
2023-05-18T15:17:03.502Z,15.95
2023-05-18T15:19:31.530Z,15.78
2023-05-18T15:22:00.857Z,15.75
2023-05-18T15:24:28.756Z,15.75
2023-05-18T15:26:56.729Z,15.70
2023-05-18T15:29:24.648Z,15.69
2023-05-18T15:31:54.987Z,15.68
2023-05-18T15:34:22.913Z,15.60
2023-05-18T15:36:52.797Z,15.56
2023-05-18T15:39:22.057Z,15.49
2023-05-18T15:41:49.957Z,15.46
2023-05-18T15:44:17.854Z,15.43
2023-05-18T15:46:45.906Z,15.37
2023-05-18T15:49:13.971Z,15.33
2023-05-18T15:51:41.853Z,15.34
2023-05-18T15:54:10.217Z,15.27
2023-05-18T15:56:39.644Z,15.21
2023-05-18T15:59:08.626Z,15.18
2023-05-18T16:01:36.776Z,15.17
2023-05-18T16:04:04.818Z,15.13
2023-05-18T16:06:34.496Z,15.08
2023-05-18T16:09:02.612Z,15.09
2023-05-18T16:11:30.683Z,15.02
2023-05-18T16:14:00.509Z,14.96
2023-05-18T16:16:28.957Z,15.00
2023-05-18T16:18:57.042Z,14.94
2023-05-18T16:21:24.926Z,14.96
2023-05-18T16:23:52.742Z,14.92
2023-05-18T16:26:21.898Z,14.93
2023-05-18T16:28:50.170Z,14.91
2023-05-18T16:31:19.418Z,14.90
2023-05-18T16:33:47.323Z,14.86
2023-05-18T16:36:15.360Z,14.86
2023-05-18T16:38:43.178Z,14.87
2023-05-18T16:41:12.430Z,14.89
2023-05-18T16:43:40.453Z,14.89
2023-05-18T16:46:08.434Z,14.85
2023-05-18T16:48:37.875Z,14.80
2023-05-18T16:51:07.060Z,14.79
2023-05-18T16:53:35.267Z,14.76
2023-05-18T16:56:03.892Z,14.76
2023-05-18T16:58:31.929Z,14.75
2023-05-18T17:00:59.764Z,14.68
2023-05-18T17:03:28.170Z,14.68
2023-05-18T17:05:57.499Z,14.70
2023-05-18T17:08:25.491Z,14.68
2023-05-18T17:10:53.443Z,14.63
2023-05-18T17:13:21.472Z,14.59
2023-05-18T17:15:49.489Z,14.63
2023-05-18T17:18:17.473Z,14.58
2023-05-18T17:20:45.427Z,14.59
2023-05-18T17:23:18.635Z,14.57
2023-05-18T17:25:48.348Z,14.57
2023-05-18T17:28:18.883Z,14.57
2023-05-18T17:30:46.881Z,14.54
2023-05-18T17:33:14.941Z,14.55
2023-05-18T17:35:42.935Z,14.50
2023-05-18T17:38:10.965Z,14.49
2023-05-18T17:40:40.629Z,14.51
2023-05-18T17:43:08.949Z,14.49
2023-05-18T17:45:36.918Z,14.47
2023-05-18T17:48:05.200Z,14.43
2023-05-18T17:50:33.310Z,14.40
2023-05-18T17:53:01.486Z,14.41
2023-05-18T17:55:29.323Z,14.37
2023-05-18T17:58:01.008Z,14.35
2023-05-18T18:00:29.274Z,14.31
2023-05-18T18:02:57.476Z,14.29
2023-05-18T18:05:25.694Z,14.29
2023-05-18T18:07:54.171Z,14.23
2023-05-18T18:10:22.240Z,14.22
2023-05-18T18:12:50.170Z,14.23
2023-05-18T18:15:20.034Z,14.20
2023-05-18T18:17:48.004Z,14.21
2023-05-18T18:20:15.930Z,14.16
2023-05-18T18:22:43.810Z,14.14
2023-05-18T18:25:11.789Z,14.14
2023-05-18T18:27:39.766Z,14.12
2023-05-18T18:30:08.781Z,14.11
2023-05-18T18:32:38.172Z,14.06
2023-05-18T18:35:07.124Z,14.06
2023-05-18T18:37:35.137Z,14.05
2023-05-18T18:40:03.097Z,14.02
2023-05-18T18:42:30.963Z,14.01
2023-05-18T18:44:58.843Z,13.97
2023-05-18T18:47:26.891Z,13.96
2023-05-18T18:49:56.161Z,13.93
2023-05-18T18:52:24.029Z,13.91
2023-05-18T18:54:51.873Z,13.89
2023-05-18T18:57:19.832Z,13.88
2023-05-18T18:59:47.890Z,13.84
2023-05-18T19:02:16.283Z,13.81
2023-05-18T19:04:44.188Z,13.82
2023-05-18T19:07:13.962Z,13.80
2023-05-18T19:09:41.920Z,13.75
2023-05-18T19:12:10.582Z,13.75
2023-05-18T19:14:38.520Z,13.72
2023-05-18T19:17:06.429Z,13.71
2023-05-18T19:19:34.306Z,13.68
2023-05-18T19:22:02.256Z,13.66
2023-05-18T19:24:31.479Z,13.64
2023-05-18T19:26:59.527Z,13.58
2023-05-18T19:29:28.545Z,13.60
2023-05-18T19:31:57.696Z,13.57
2023-05-18T19:34:25.639Z,13.53
2023-05-18T19:36:53.773Z,13.51
2023-05-18T19:39:22.465Z,13.49
2023-05-18T19:41:51.755Z,13.48
2023-05-18T19:44:19.626Z,13.45
2023-05-18T19:46:47.565Z,13.43
2023-05-18T19:49:15.508Z,13.39
2023-05-18T19:51:43.457Z,13.38
2023-05-18T19:54:11.898Z,13.37
2023-05-18T19:56:39.853Z,13.38
2023-05-18T19:59:09.122Z,13.37
2023-05-18T20:01:37.077Z,13.38
2023-05-18T20:04:05.173Z,13.30
2023-05-18T20:06:33.934Z,13.33
2023-05-18T20:09:01.784Z,13.27
2023-05-18T20:11:29.738Z,13.27
2023-05-18T20:13:57.737Z,13.24
2023-05-18T20:16:29.130Z,13.22
2023-05-18T20:18:57.869Z,13.18
2023-05-18T20:21:25.829Z,13.14
2023-05-18T20:23:53.727Z,13.09
2023-05-18T20:26:22.691Z,13.06
2023-05-18T20:28:50.609Z,13.03
2023-05-18T20:31:18.584Z,12.96
2023-05-18T20:33:47.825Z,12.94
2023-05-18T20:36:16.255Z,12.86
2023-05-18T20:38:44.368Z,12.83
2023-05-18T20:41:12.316Z,12.80
2023-05-18T20:43:40.356Z,12.75
2023-05-18T20:46:09.707Z,12.70
2023-05-18T20:48:38.786Z,12.64
2023-05-18T20:51:15.219Z,12.59
2023-05-18T20:53:43.888Z,12.53
2023-05-18T20:56:12.033Z,12.44
2023-05-18T20:58:48.659Z,12.44
2023-05-18T21:01:18.521Z,12.33
2023-05-18T21:03:46.680Z,12.31
2023-05-18T21:06:16.052Z,12.27
2023-05-18T21:08:45.596Z,12.21
2023-05-18T21:11:13.593Z,12.15
2023-05-18T21:13:41.755Z,12.08
2023-05-18T21:16:09.736Z,12.07
2023-05-18T21:18:37.824Z,12.01
2023-05-18T21:21:05.751Z,11.89
2023-05-18T21:23:35.384Z,11.91
2023-05-18T21:26:03.510Z,11.85
2023-05-18T21:28:31.421Z,11.84
2023-05-18T21:30:59.362Z,11.82
2023-05-18T21:33:27.272Z,11.79
2023-05-18T21:35:55.176Z,11.78
2023-05-18T21:38:23.182Z,11.75
2023-05-18T21:40:52.735Z,11.71
2023-05-18T21:43:20.590Z,11.66
2023-05-18T21:45:48.626Z,11.69
2023-05-18T21:48:16.782Z,11.67
2023-05-18T21:50:44.758Z,11.63
2023-05-18T21:53:12.727Z,11.62
2023-05-18T21:55:40.700Z,11.61
2023-05-18T21:58:09.932Z,11.60
2023-05-18T22:00:38.349Z,11.61
2023-05-18T22:03:06.668Z,11.60
2023-05-18T22:05:34.960Z,11.58
2023-05-18T22:08:02.853Z,11.57
2023-05-18T22:10:32.451Z,11.57
2023-05-18T22:13:00.806Z,11.59
2023-05-18T22:15:30.055Z,11.60
2023-05-18T22:17:57.940Z,11.60
2023-05-18T22:20:25.928Z,11.61
2023-05-18T22:22:53.896Z,11.62
2023-05-18T22:25:22.099Z,11.60
2023-05-18T22:27:50.012Z,11.61
2023-05-18T22:30:18.517Z,11.61
2023-05-18T22:32:47.854Z,11.62
2023-05-18T22:35:15.729Z,11.64
2023-05-18T22:37:43.614Z,11.63
2023-05-18T22:40:12.384Z,11.62
2023-05-18T22:42:40.809Z,11.62
2023-05-18T22:45:11.519Z,11.61
2023-05-18T22:47:40.122Z,11.61
2023-05-18T22:50:10.635Z,11.60
2023-05-18T22:52:38.737Z,11.59
2023-05-18T22:55:12.938Z,11.60
2023-05-18T22:57:41.189Z,11.60
2023-05-18T23:00:10.533Z,11.60
2023-05-18T23:02:38.809Z,11.58
2023-05-18T23:05:07.130Z,11.60
2023-05-18T23:07:37.709Z,11.54
2023-05-18T23:10:06.522Z,11.55
2023-05-18T23:12:34.612Z,11.54
2023-05-18T23:15:04.005Z,11.54
2023-05-18T23:17:32.604Z,11.58
2023-05-18T23:20:07.280Z,11.54
2023-05-18T23:22:36.554Z,11.52
2023-05-18T23:25:08.562Z,11.52
2023-05-18T23:27:36.526Z,11.54
2023-05-18T23:30:04.707Z,11.55
2023-05-18T23:32:33.304Z,11.53
2023-05-18T23:35:01.717Z,11.53
2023-05-18T23:37:31.854Z,11.51
2023-05-18T23:40:02.332Z,11.48
2023-05-18T23:42:31.014Z,11.40
2023-05-18T23:44:59.532Z,11.48
2023-05-18T23:47:27.855Z,11.44
2023-05-18T23:49:56.351Z,11.41
2023-05-18T23:52:27.800Z,11.37
2023-05-18T23:54:58.592Z,11.38
2023-05-18T23:57:28.571Z,11.33
2023-05-18T23:59:56.889Z,11.36
